首页
METAR-TAF:

METAR-TAF

机场 :

里奥加耶戈斯, 阿根廷

纬度: 51-37S, 经度: 069-17W, 海拔: 20米

当前天气观测

该预报发布于1小时和24分钟前的08:00 UTC
风速21节,风向西北
温度 7°C
湿度 61%
气压 1000 hPa
能见度10公里或以上
1500米以下无云,无积雨云

METAR: SAWG 200800Z 31021KT CAVOK 07/00 Q1000

时间: 06:24 (09:24 UTC)

预报

该预报发布于3小时和54分钟前的05:30 UTC
预报有效从20日的 06点(UTC)到 21日的 06点(UTC)
风速20节,风向西转西北
能见度10公里或以上
1500米以下无云,无积雨云
短暂存在
从 20日的 06点(UTC)到 20日的 10点(UTC)
风速20节,风向西转西北,有时为30节阵风
成为
从 20日的 16点(UTC)到 20日的 18点(UTC)
风速25节,风向西转西北,有时为40节阵风
成为
从 21日的 02点(UTC)到 20日的 05点(UTC)
风速15节,风向西,有时为30节阵风
能见度10公里或以上
多云层高于2000英尺
阴天层高于5000英尺

TAF: SAWG 200530Z 2006/2106 29020KT CAVOK TX08/2018Z TN02/2106Z TEMPO 2006/2010 29020G30KT BECMG 2016/2018 29025G40KT BECMG 2102/2005 27015G30KT 9999 BKN020 OVC050

超过4000个机场的气象观测和天气预报(METAR&TAF报告)。

可查询的气象台以黄色和红色小点在地图上表示。

将鼠标移到小点上方,可查看气象台名称。

然后点击查看天气观测和预报。

如需切换地图:点击带黑十字的绿色按钮放大地图;点击带横线的绿色按钮缩小地图;或者点击绿色箭头查看邻近地区的地图。


METAR-TAF: